Time;durP1;ratioP1;P1;durP2;ratioP2;P2;SDS_P1;SDS_P2;PMS_P1;PMS_P2;Temp;Humidity;BMP_temperature;BMP_pressure;BME280_temperature;BME280_humidity;BME280_pressure;Samples;Min_cycle;Max_cycle;Signal;HPM_P1;HPM_P2
2022/10/11 00:01:30;;;;;;;23.10;3.88;;;;;;;14.12;59.29;102470.91;5034730;28;20038;-68
2022/10/11 00:03:56;;;;;;;8.23;3.05;;;;;;;14.05;59.46;102467.38;5034215;28;20533;-69
2022/10/11 00:06:21;;;;;;;14.93;3.63;;;;;;;14.10;58.80;102476.53;5034633;28;20485;-69
2022/10/11 00:08:46;;;;;;;12.82;3.42;;;;;;;14.01;59.23;102466.94;5034359;28;20041;-69
2022/10/11 00:11:12;;;;;;;23.02;4.63;;;;;;;14.12;59.67;102470.91;5034704;28;20112;-69
2022/10/11 00:13:37;;;;;;;18.98;3.30;;;;;;;14.18;59.41;102470.06;5035889;28;20068;-69
2022/10/11 00:16:08;;;;;;;21.40;3.83;;;;;;;14.10;59.14;102473.81;5033774;28;20041;-67
2022/10/11 00:18:33;;;;;;;;;;;;;;;14.09;59.15;102468.63;5034263;28;20061;-69
2022/10/11 00:21:04;;;;;;;20.02;3.15;;;;;;;13.95;59.79;102475.06;5033431;28;19968;-67
2022/10/11 00:23:30;;;;;;;23.15;4.03;;;;;;;13.73;59.54;102474.44;5033444;28;20075;-69
2022/10/11 00:25:57;;;;;;;24.13;3.78;;;;;;;14.01;60.00;102469.63;5033837;28;20022;-68
2022/10/11 00:28:23;;;;;;;17.38;3.85;;;;;;;14.02;59.73;102470.47;5033315;28;20029;-69
2022/10/11 00:30:48;;;;;;;22.92;3.55;;;;;;;13.94;59.45;102476.09;5033286;28;20100;-69
2022/10/11 00:33:13;;;;;;;26.83;4.30;;;;;;;13.85;60.27;102472.78;5033568;28;20045;-68
2022/10/11 00:35:40;;;;;;;22.40;4.15;;;;;;;13.82;61.37;102480.44;5033198;28;20461;-69
2022/10/11 00:38:05;;;;;;;23.05;4.72;;;;;;;13.68;62.01;102481.50;5033683;28;20049;-69
2022/10/11 00:40:31;;;;;;;22.08;4.05;;;;;;;13.98;61.03;102480.03;5032989;28;20563;-68
2022/10/11 00:42:56;;;;;;;17.17;4.25;;;;;;;14.17;59.85;102483.78;5033732;28;20129;-67
2022/10/11 00:45:30;;;;;;;21.55;6.45;;;;;;;14.16;59.33;102482.97;5033893;28;20563;-68
2022/10/11 00:48:02;;;;;;;18.80;4.07;;;;;;;14.18;59.29;102490.84;5033649;28;20045;-67
2022/10/11 00:50:31;;;;;;;16.80;3.42;;;;;;;14.08;59.39;102491.28;5033269;28;20040;-68
2022/10/11 00:53:01;;;;;;;15.98;3.60;;;;;;;14.22;59.76;102490.25;5034011;28;20041;-67
2022/10/11 00:55:30;;;;;;;19.50;3.85;;;;;;;13.85;61.28;102490.84;5033496;28;20103;-68
2022/10/11 00:57:57;;;;;;;16.73;3.30;;;;;;;14.00;61.54;102495.03;5033441;28;20030;-67
2022/10/11 01:00:23;;;;;;;12.77;3.00;;;;;;;14.13;59.87;102492.31;5033485;28;20033;-67
2022/10/11 01:02:49;;;;;;;17.02;3.95;;;;;;;14.17;59.46;102491.91;5033357;28;20053;-68
2022/10/11 01:05:17;;;;;;;20.35;3.80;;;;;;;14.05;59.93;102492.50;5033362;28;20112;-67
2022/10/11 01:07:44;;;;;;;29.90;3.70;;;;;;;14.09;59.32;102496.47;5033643;28;20029;-69
2022/10/11 01:10:09;;;;;;;9.93;2.75;;;;;;;13.96;59.14;102499.19;5032514;28;20425;-68
2022/10/11 01:12:49;;;;;;;21.10;3.58;;;;;;;13.87;59.37;102502.28;5032788;28;20045;-70
2022/10/11 01:15:30;;;;;;;17.13;3.92;;;;;;;13.98;59.46;102501.66;5033026;28;20065;-68
2022/10/11 01:18:21;;;;;;;21.45;3.67;;;;;;;13.94;58.61;102497.72;5033145;28;20514;-70
2022/10/11 01:20:59;;;;;;;9.25;2.53;;;;;;;13.85;58.83;102498.97;5033153;28;20030;-70
2022/10/11 01:23:36;;;;;;;16.55;2.92;;;;;;;13.76;58.76;102497.47;5048333;28;20354;-68
2022/10/11 01:26:26;;;;;;;18.45;2.95;;;;;;;13.68;58.54;102501.22;5033663;28;20041;-68
2022/10/11 01:29:12;;;;;;;13.45;2.97;;;;;;;13.62;59.39;102506.63;5017835;28;20084;-68
2022/10/11 01:31:41;;;;;;;8.75;3.10;;;;;;;13.56;58.99;102497.44;5013649;28;20111;-68
2022/10/11 01:34:12;;;;;;;13.90;3.03;;;;;;;13.59;58.39;102501.59;5006257;28;20048;-69
2022/10/11 01:36:46;;;;;;;15.20;2.53;;;;;;;13.55;59.14;102512.00;5032552;28;20453;-69
2022/10/11 01:39:18;;;;;;;11.18;2.97;;;;;;;13.51;59.27;102510.75;5032553;28;20563;-68
2022/10/11 01:41:50;;;;;;;11.00;3.38;;;;;;;13.43;58.89;102521.72;5032758;28;20048;-68
2022/10/11 01:44:15;;;;;;;9.80;3.45;;;;;;;13.40;59.06;102510.50;5032689;28;20048;-68
2022/10/11 01:46:41;;;;;;;11.15;2.88;;;;;;;13.31;58.90;102519.78;5032901;28;20041;-69
2022/10/11 01:49:07;;;;;;;11.18;3.00;;;;;;;13.33;58.69;102513.16;5032448;28;20033;-69
2022/10/11 01:51:37;;;;;;;14.32;2.72;;;;;;;13.36;58.33;102520.03;5032149;28;20180;-70
2022/10/11 01:54:12;;;;;;;16.95;2.83;;;;;;;13.32;59.10;102521.47;5032238;28;20116;-70
2022/10/11 01:57:05;;;;;;;11.98;2.50;;;;;;;13.19;59.45;102527.63;5032343;28;20041;-70
2022/10/11 01:59:47;;;;;;;7.18;2.90;;;;;;;13.21;59.12;102529.13;5012616;28;20377;-68
2022/10/11 02:02:26;;;;;;;12.88;2.47;;;;;;;13.21;59.00;102526.41;5018154;28;20040;-68
2022/10/11 02:05:49;;;;;;;10.52;2.83;;;;;;;13.15;59.30;102527.22;5033998;28;20033;-70
2022/10/11 02:08:25;;;;;;;11.85;2.58;;;;;;;13.12;59.02;102527.63;4966939;28;20046;-69
2022/10/11 02:11:15;;;;;;;12.73;3.03;;;;;;;13.09;59.15;102529.88;4970570;28;20117;-69
2022/10/11 02:13:47;;;;;;;8.40;2.50;;;;;;;13.12;59.96;102529.50;4970982;28;20061;-69
2022/10/11 02:16:17;;;;;;;13.43;2.35;;;;;;;13.07;59.77;102530.09;4970538;28;20046;-68
2022/10/11 02:18:48;;;;;;;15.88;3.13;;;;;;;13.03;59.49;102534.22;4970613;28;20038;-70
2022/10/11 02:21:19;;;;;;;8.15;2.50;;;;;;;13.09;59.40;102528.03;4970381;28;20400;-67
2022/10/11 02:24:03;;;;;;;13.00;3.53;;;;;;;13.16;59.23;102528.06;4970591;28;20633;-69
2022/10/11 02:26:30;;;;;;;13.05;3.35;;;;;;;13.25;59.29;102534.94;4985943;28;20391;-67
2022/10/11 02:29:03;;;;;;;15.68;4.03;;;;;;;13.25;59.44;102534.94;4970874;28;20039;-68
2022/10/11 02:31:32;;;;;;;17.83;3.25;;;;;;;13.14;58.98;102549.88;4970194;28;20154;-68
2022/10/11 02:34:07;;;;;;;20.08;2.75;;;;;;;13.11;58.85;102535.91;4970262;28;20043;-69
2022/10/11 02:36:53;;;;;;;13.93;2.72;;;;;;;13.15;59.53;102535.31;4970284;28;20479;-67
2022/10/11 02:39:47;;;;;;;13.20;3.75;;;;;;;13.09;60.87;102535.28;4970337;28;20042;-69
2022/10/11 02:42:18;;;;;;;10.93;4.13;;;;;;;13.33;59.84;102542.03;4969480;28;20139;-68
2022/10/11 02:44:52;;;;;;;19.63;3.55;;;;;;;13.54;59.92;102540.03;5011659;28;20034;-69
2022/10/11 02:47:18;;;;;;;18.63;4.15;;;;;;;13.46;59.19;102544.78;5012246;28;20084;-69
2022/10/11 02:49:43;;;;;;;12.73;3.13;;;;;;;13.38;59.00;102543.13;5012182;28;20057;-69
2022/10/11 02:52:08;;;;;;;20.10;3.13;;;;;;;13.16;59.09;102542.41;5011831;28;20041;-69
2022/10/11 02:54:34;;;;;;;7.25;3.38;;;;;;;13.25;59.04;102534.13;5011687;28;20056;-68
2022/10/11 02:56:59;;;;;;;7.53;2.67;;;;;;;13.23;59.29;102533.50;5011543;28;20064;-69
2022/10/11 02:59:25;;;;;;;10.45;3.20;;;;;;;13.19;58.98;102543.84;5011967;28;20030;-68
2022/10/11 03:01:50;;;;;;;14.02;3.50;;;;;;;13.23;59.32;102547.00;5013575;28;20089;-69
2022/10/11 03:04:15;;;;;;;11.32;2.53;;;;;;;13.27;59.40;102553.66;5011883;28;20513;-68
2022/10/11 03:06:41;;;;;;;12.02;2.60;;;;;;;13.20;59.07;102548.22;5011424;28;20124;-69
2022/10/11 03:09:06;;;;;;;15.70;2.75;;;;;;;13.04;58.94;102545.84;5011457;28;20087;-69
2022/10/11 03:11:32;;;;;;;12.13;3.03;;;;;;;13.08;59.54;102549.81;5011582;28;20069;-68
2022/10/11 03:13:57;;;;;;;24.23;6.03;;;;;;;13.22;59.65;102554.25;5012240;28;20116;-69
2022/10/11 03:16:22;;;;;;;13.85;2.88;;;;;;;13.23;59.31;102555.09;5011604;28;20049;-67
2022/10/11 03:18:48;;;;;;;17.02;4.57;;;;;;;13.27;59.03;102551.78;5011489;28;20434;-69
2022/10/11 03:21:13;;;;;;;17.00;4.38;;;;;;;13.18;58.83;102547.59;5011732;28;20119;-68
2022/10/11 03:23:38;;;;;;;19.27;5.28;;;;;;;13.19;59.55;102555.47;5011642;28;20038;-69
2022/10/11 03:26:04;;;;;;;13.80;3.13;;;;;;;13.44;59.41;102560.38;5012075;28;20120;-68
2022/10/11 03:28:30;;;;;;;24.48;4.35;;;;;;;13.42;59.75;102562.44;5011440;28;20478;-68
2022/10/11 03:30:55;;;;;;;16.10;3.78;;;;;;;13.32;58.82;102557.41;5026116;28;20050;-68
2022/10/11 03:33:20;;;;;;;14.60;4.32;;;;;;;13.33;58.89;102561.75;5031090;28;20125;-70
2022/10/11 03:35:47;;;;;;;17.17;4.53;;;;;;;13.23;59.02;102561.31;5034631;28;20136;-69
2022/10/11 03:38:16;;;;;;;9.73;3.50;;;;;;;13.21;59.29;102563.38;5034950;28;20029;-68
2022/10/11 03:40:42;;;;;;;22.13;3.13;;;;;;;13.19;59.45;102574.38;5035152;28;20025;-68
2022/10/11 03:43:08;;;;;;;16.95;3.88;;;;;;;13.16;59.28;102579.34;5034873;28;20033;-68
2022/10/11 03:45:34;;;;;;;15.18;3.75;;;;;;;13.03;59.47;102569.28;5034670;28;20042;-68
2022/10/11 03:47:59;;;;;;;14.93;3.40;;;;;;;13.02;59.18;102575.72;5034867;28;20543;-69
2022/10/11 03:50:24;;;;;;;16.23;2.47;;;;;;;12.96;59.80;102581.06;5034624;28;20029;-68
2022/10/11 03:52:50;;;;;;;17.35;3.55;;;;;;;13.14;60.03;102581.41;5050439;28;20053;-68
2022/10/11 03:55:15;;;;;;;13.10;3.15;;;;;;;13.00;59.59;102582.34;5034643;28;20121;-68
2022/10/11 03:57:41;;;;;;;16.58;3.28;;;;;;;13.00;59.68;102579.63;5034778;28;20041;-70
2022/10/11 04:00:08;;;;;;;10.75;2.70;;;;;;;12.94;59.68;102578.56;5034581;28;20040;-69
2022/10/11 04:02:33;;;;;;;11.68;3.33;;;;;;;12.83;60.05;102592.63;5034791;28;20063;-68
2022/10/11 04:04:59;;;;;;;14.27;4.07;;;;;;;12.73;59.70;102588.59;5035157;28;20021;-69
2022/10/11 04:07:24;;;;;;;12.07;2.85;;;;;;;12.68;59.50;102593.72;5034533;28;20061;-70
2022/10/11 04:09:50;;;;;;;16.35;3.22;;;;;;;12.71;59.72;102590.66;5034314;28;20072;-69
2022/10/11 04:12:16;;;;;;;19.48;3.10;;;;;;;12.65;59.58;102596.81;5034488;28;20363;-68
2022/10/11 04:14:41;;;;;;;13.60;2.80;;;;;;;12.67;59.36;102600.16;5034167;28;20117;-68
2022/10/11 04:17:06;;;;;;;7.35;2.47;;;;;;;12.61;59.49;102599.09;5034707;28;20122;-69
2022/10/11 04:19:32;;;;;;;12.50;2.53;;;;;;;12.54;59.66;102602.75;5034262;28;20057;-69
2022/10/11 04:21:57;;;;;;;12.35;2.28;;;;;;;12.54;59.68;102598.19;5034151;28;20029;-67
2022/10/11 04:24:23;;;;;;;12.48;2.50;;;;;;;12.57;59.92;102599.66;5034211;28;20050;-68
2022/10/11 04:26:48;;;;;;;10.45;3.78;;;;;;;12.55;60.01;102609.81;5033847;28;20112;-68
2022/10/11 04:29:14;;;;;;;8.10;2.75;;;;;;;12.57;59.58;102611.28;5032975;28;20462;-68
2022/10/11 04:31:39;;;;;;;9.43;2.53;;;;;;;12.55;59.44;102612.50;5014489;28;20038;-69
2022/10/11 04:34:04;;;;;;;9.05;2.92;;;;;;;12.51;59.24;102619.31;5013950;28;20497;-69
2022/10/11 04:36:31;;;;;;;6.25;2.67;;;;;;;12.45;59.52;102615.53;5013730;28;20042;-69
2022/10/11 04:38:57;;;;;;;8.25;2.45;;;;;;;12.47;59.37;102620.72;5013657;28;20042;-68
2022/10/11 04:41:23;;;;;;;6.43;2.22;;;;;;;12.53;59.33;102618.09;5013605;28;20493;-68
2022/10/11 04:43:48;;;;;;;5.38;2.15;;;;;;;12.50;59.15;102621.16;5013943;28;20435;-68
2022/10/11 04:46:13;;;;;;;7.63;2.63;;;;;;;12.43;59.13;102628.38;5011963;28;20188;-68
2022/10/11 04:48:39;;;;;;;12.55;2.67;;;;;;;12.36;59.47;102624.81;5013457;28;20037;-69
2022/10/11 04:51:04;;;;;;;4.55;2.05;;;;;;;12.36;59.52;102627.50;5012966;28;20543;-69
2022/10/11 04:53:30;;;;;;;7.93;3.15;;;;;;;12.41;59.25;102633.13;5012987;28;20044;-70
2022/10/11 04:56:00;;;;;;;8.50;2.58;;;;;;;12.32;59.28;102628.91;5013627;28;20490;-69
2022/10/11 04:58:31;;;;;;;8.50;2.83;;;;;;;12.24;59.59;102635.25;5012733;28;20410;-68
2022/10/11 05:00:57;;;;;;;13.25;2.33;;;;;;;12.18;59.74;102638.72;5013068;28;20042;-71
2022/10/11 05:03:22;;;;;;;8.05;2.67;;;;;;;12.27;59.55;102634.88;5013550;28;20389;-70
2022/10/11 05:05:48;;;;;;;7.85;2.25;;;;;;;12.17;59.49;102628.97;5013596;28;20030;-69
2022/10/11 05:08:13;;;;;;;14.48;2.40;;;;;;;12.11;60.22;102636.97;5013650;28;20541;-69
2022/10/11 05:10:39;;;;;;;5.45;2.30;;;;;;;12.23;59.45;102635.44;5013918;28;20025;-69
2022/10/11 05:13:05;;;;;;;13.27;2.75;;;;;;;12.25;59.34;102647.72;5013449;28;20042;-71
2022/10/11 05:15:30;;;;;;;5.35;2.20;;;;;;;12.19;59.18;102640.38;5013226;28;20446;-68
2022/10/11 05:17:55;;;;;;;3.78;2.15;;;;;;;12.19;59.01;102637.69;5012073;28;20133;-68
2022/10/11 05:20:21;;;;;;;9.25;2.28;;;;;;;12.16;59.28;102638.09;5013962;28;20065;-68
2022/10/11 05:22:46;;;;;;;19.15;2.55;;;;;;;12.21;59.53;102641.03;5027676;28;20065;-69
2022/10/11 05:25:11;;;;;;;9.10;2.50;;;;;;;12.18;59.26;102644.13;5013025;28;20130;-70
2022/10/11 05:27:37;;;;;;;12.20;2.58;;;;;;;12.28;58.87;102638.41;5015367;28;20038;-69
2022/10/11 05:30:03;;;;;;;6.22;2.38;;;;;;;12.34;58.79;102643.03;5020301;28;20124;-69
2022/10/11 05:32:29;;;;;;;8.02;2.72;;;;;;;12.30;58.47;102645.25;5032513;28;20040;-69
2022/10/11 05:34:54;;;;;;;7.30;2.60;;;;;;;12.36;58.45;102649.88;5033278;28;20030;-68
2022/10/11 05:37:20;;;;;;;6.28;2.90;;;;;;;12.32;58.60;102653.16;5033265;28;20029;-70
2022/10/11 05:39:45;;;;;;;6.18;2.47;;;;;;;12.29;58.73;102651.69;5032697;28;20034;-69
2022/10/11 05:42:11;;;;;;;18.00;3.33;;;;;;;12.19;59.15;102653.03;5032537;28;20041;-69
2022/10/11 05:44:36;;;;;;;9.52;2.78;;;;;;;12.30;58.85;102655.22;5032325;28;20033;-67
2022/10/11 05:47:02;;;;;;;11.80;2.75;;;;;;;12.27;58.84;102663.69;5032890;28;20076;-69
2022/10/11 05:49:27;;;;;;;6.10;2.78;;;;;;;12.30;58.86;102655.22;5032935;28;20057;-70
2022/10/11 05:51:52;;;;;;;9.02;2.53;;;;;;;12.30;58.56;102658.72;5033243;28;20038;-69
2022/10/11 05:54:18;;;;;;;7.80;2.22;;;;;;;12.28;58.71;102663.47;5035334;28;20033;-70
2022/10/11 05:56:43;;;;;;;5.93;2.80;;;;;;;12.34;58.95;102662.72;5051309;28;20124;-69
2022/10/11 05:59:09;;;;;;;7.63;2.40;;;;;;;12.23;59.13;102657.00;5033555;28;20450;-69
2022/10/11 06:01:34;;;;;;;11.88;2.78;;;;;;;12.27;59.00;102663.69;5027858;28;20167;-69
2022/10/11 06:04:00;;;;;;;8.40;2.47;;;;;;;12.30;59.03;102666.00;5033459;28;20040;-69
2022/10/11 06:06:25;;;;;;;5.38;2.83;;;;;;;12.33;59.16;102666.44;5041545;28;20029;-70
2022/10/11 06:08:50;;;;;;;6.47;2.22;;;;;;;12.37;58.95;102666.91;5030323;28;20045;-70
2022/10/11 06:11:25;;;;;;;11.10;2.78;;;;;;;12.41;58.83;102665.47;5030636;28;20061;-69
2022/10/11 06:13:55;;;;;;;6.43;2.67;;;;;;;12.44;59.16;102670.50;5031297;28;20071;-70
2022/10/11 06:16:20;;;;;;;6.78;2.45;;;;;;;12.47;58.84;102674.66;5030592;28;20486;-70
2022/10/11 06:18:46;;;;;;;7.68;2.50;;;;;;;12.56;58.75;102674.34;5030590;28;20048;-70
2022/10/11 06:21:12;;;;;;;8.45;2.72;;;;;;;12.56;58.72;102681.59;5026960;28;20080;-70
2022/10/11 06:23:38;;;;;;;13.90;4.35;;;;;;;12.40;59.13;102673.78;5028135;28;20038;-70
2022/10/11 06:26:05;;;;;;;11.70;2.80;;;;;;;12.60;58.89;102672.09;5030735;28;20040;-72
2022/10/11 06:28:33;;;;;;;12.02;3.10;;;;;;;12.58;59.11;102688.47;5027763;28;20029;-69
2022/10/11 06:30:59;;;;;;;8.60;3.17;;;;;;;12.58;59.36;102683.06;5031509;28;20037;-70
2022/10/11 06:33:25;;;;;;;10.40;3.20;;;;;;;12.62;59.29;102684.34;5031569;28;20065;-68
2022/10/11 06:35:57;;;;;;;6.97;2.63;;;;;;;12.69;59.25;102692.50;5031708;28;20035;-69
2022/10/11 06:38:23;;;;;;;13.30;2.42;;;;;;;12.65;59.41;102693.91;5030259;28;20026;-69
2022/10/11 06:40:48;;;;;;;8.82;2.92;;;;;;;12.78;59.15;102691.34;5031917;28;20028;-68
2022/10/11 06:43:13;;;;;;;10.27;2.53;;;;;;;12.88;58.82;102697.22;5031520;28;20065;-69
2022/10/11 06:45:39;;;;;;;15.55;3.17;;;;;;;12.84;59.60;102702.19;5031769;28;20072;-69
2022/10/11 06:48:04;;;;;;;8.85;2.75;;;;;;;12.88;59.72;102713.41;5032589;28;20080;-70
2022/10/11 06:50:31;;;;;;;9.68;3.70;;;;;;;13.06;59.30;102705.72;5031424;28;20048;-69
2022/10/11 06:52:57;;;;;;;8.23;4.07;;;;;;;13.13;59.11;102704.75;5032104;28;20022;-70
2022/10/11 06:55:23;;;;;;;8.15;2.92;;;;;;;13.11;59.24;102709.50;5031384;28;20037;-71
2022/10/11 06:57:48;;;;;;;17.30;3.15;;;;;;;13.29;59.11;102710.88;5029599;28;20487;-70
2022/10/11 07:00:14;;;;;;;9.75;3.20;;;;;;;13.39;59.33;102717.59;5029806;28;20128;-69
2022/10/11 07:02:40;;;;;;;16.25;3.17;;;;;;;13.52;58.72;102720.38;5029717;28;20038;-71
2022/10/11 07:05:06;;;;;;;12.20;2.67;;;;;;;13.52;59.14;102717.66;5029210;28;20112;-72
2022/10/11 07:07:31;;;;;;;19.10;3.70;;;;;;;13.60;58.94;102722.91;5029888;28;20067;-71
2022/10/11 07:09:56;;;;;;;11.32;3.75;;;;;;;13.55;59.66;102728.09;5032217;28;20542;-69
2022/10/11 07:12:22;;;;;;;12.85;4.20;;;;;;;13.64;59.08;102737.69;5034041;28;20044;-70
2022/10/11 07:14:47;;;;;;;13.98;4.32;;;;;;;13.74;59.02;102732.75;5033963;28;20052;-69
2022/10/11 07:17:12;;;;;;;18.23;4.63;;;;;;;13.74;59.09;102732.75;5034564;28;20079;-70
2022/10/11 07:19:38;;;;;;;14.02;4.93;;;;;;;13.77;59.21;102735.06;5033415;28;20463;-68
2022/10/11 07:22:03;;;;;;;13.02;4.75;;;;;;;13.82;59.06;102732.59;5033456;28;20049;-69
2022/10/11 07:24:28;;;;;;;13.10;4.13;;;;;;;13.92;58.94;102732.22;5033288;28;20038;-70
2022/10/11 07:26:54;;;;;;;15.15;5.22;;;;;;;13.87;59.13;102742.81;5032796;28;20026;-70
2022/10/11 07:29:20;;;;;;;11.38;4.20;;;;;;;13.84;59.51;102741.34;5032865;28;20029;-69
2022/10/11 07:31:45;;;;;;;9.95;4.55;;;;;;;13.90;59.42;102747.81;5033720;28;20025;-69
2022/10/11 07:34:11;;;;;;;14.90;3.97;;;;;;;13.88;59.57;102755.28;5032702;28;20034;-73
2022/10/11 07:36:36;;;;;;;8.50;3.60;;;;;;;14.05;59.35;102749.31;5033120;28;20053;-71
2022/10/11 07:39:06;;;;;;;9.63;4.25;;;;;;;14.06;59.28;102742.91;5033070;28;20042;-70
2022/10/11 07:41:32;;;;;;;17.10;4.68;;;;;;;14.08;59.02;102745.41;5032556;28;20060;-70
2022/10/11 07:43:57;;;;;;;14.40;4.18;;;;;;;14.06;59.22;102748.31;5033314;28;20116;-69
2022/10/11 07:46:23;;;;;;;17.30;4.60;;;;;;;14.15;59.06;102748.97;5031983;28;20029;-70
2022/10/11 07:48:51;;;;;;;14.15;5.07;;;;;;;14.19;59.20;102749.41;5032868;28;20386;-69
2022/10/11 07:51:21;;;;;;;14.57;3.85;;;;;;;14.26;58.90;102745.69;5030140;28;20548;-69
2022/10/11 07:53:49;;;;;;;10.50;3.97;;;;;;;14.30;59.10;102748.84;5033117;28;20045;-69
2022/10/11 07:56:18;;;;;;;17.17;3.53;;;;;;;14.30;59.16;102752.38;5033580;28;20044;-68
2022/10/11 07:58:48;;;;;;;13.98;3.83;;;;;;;14.35;59.13;102755.28;5033400;28;20037;-70
2022/10/11 08:01:13;;;;;;;15.00;4.10;;;;;;;14.35;59.22;102758.00;5032597;28;20116;-70
2022/10/11 08:03:38;;;;;;;9.60;3.88;;;;;;;14.45;59.30;102753.03;5032482;28;20120;-69
2022/10/11 08:06:07;;;;;;;12.40;4.35;;;;;;;14.49;59.17;102757.00;5032526;28;20128;-69
2022/10/11 08:08:32;;;;;;;12.52;4.25;;;;;;;14.57;59.37;102761.38;5032244;28;20025;-70
2022/10/11 08:10:58;;;;;;;19.25;4.63;;;;;;;14.67;59.26;102765.38;5032796;28;20037;-68
2022/10/11 08:13:24;;;;;;;18.35;5.35;;;;;;;14.77;59.46;102763.13;5031616;28;20037;-71
2022/10/11 08:15:50;;;;;;;15.18;3.88;;;;;;;14.83;59.42;102767.69;5031596;28;20513;-69
2022/10/11 08:18:16;;;;;;;16.83;5.05;;;;;;;15.00;58.72;102770.00;5028732;28;20501;-68
2022/10/11 08:20:41;;;;;;;11.15;5.10;;;;;;;15.03;58.94;102773.13;5031045;28;20029;-70
2022/10/11 08:23:08;;;;;;;17.95;5.15;;;;;;;15.17;58.67;102779.38;5031746;28;20044;-69
2022/10/11 08:25:41;;;;;;;23.85;5.57;;;;;;;15.07;59.45;102779.81;5031950;28;20439;-69
2022/10/11 08:28:07;;;;;;;11.50;5.05;;;;;;;15.16;59.23;102775.00;5032418;28;20055;-71
2022/10/11 08:30:32;;;;;;;15.43;4.57;;;;;;;15.32;58.94;102790.84;5032322;28;20045;-69
2022/10/11 08:32:58;;;;;;;26.85;5.95;;;;;;;15.38;58.88;102788.13;5032484;28;20119;-70
2022/10/11 08:35:24;;;;;;;16.33;4.80;;;;;;;15.49;58.78;102784.81;5032436;28;20045;-69
2022/10/11 08:37:49;;;;;;;18.73;4.95;;;;;;;15.50;59.08;102789.19;5032665;28;20781;-68
2022/10/11 08:40:17;;;;;;;25.80;4.57;;;;;;;15.46;59.28;102790.66;5032690;28;20593;-70
2022/10/11 08:43:14;;;;;;;19.48;4.90;;;;;;;15.63;59.20;102791.88;5034499;28;20033;-69
2022/10/11 08:45:47;;;;;;;15.23;4.13;;;;;;;15.80;59.01;102792.28;5031068;28;20116;-71
2022/10/11 08:48:33;;;;;;;9.90;5.00;;;;;;;15.93;58.66;102792.25;5032359;28;20082;-70
2022/10/11 08:50:59;;;;;;;20.67;5.70;;;;;;;15.96;58.83;102799.94;5029887;28;20040;-68
2022/10/11 08:53:39;;;;;;;23.67;5.50;;;;;;;15.98;58.92;102797.03;5032564;28;20157;-69
2022/10/11 08:56:05;;;;;;;11.63;4.95;;;;;;;16.08;58.80;102794.72;5031208;28;20044;-68
2022/10/11 08:58:51;;;;;;;23.58;5.90;;;;;;;16.19;58.75;102791.31;5031549;28;20041;-71
2022/10/11 09:01:21;;;;;;;18.02;5.38;;;;;;;16.19;59.16;102805.72;5032490;28;20451;-74
2022/10/11 09:03:47;;;;;;;22.88;4.18;;;;;;;16.24;58.85;102800.47;5032121;28;20166;-72
2022/10/11 09:06:24;;;;;;;15.65;4.50;;;;;;;16.34;58.99;102798.13;5032296;28;20401;-70
2022/10/11 09:08:59;;;;;;;26.02;5.32;;;;;;;16.48;58.75;102796.19;5031837;28;20134;-69
2022/10/11 09:11:33;;;;;;;23.15;5.30;;;;;;;16.55;59.00;102792.41;5029565;28;20033;-70
2022/10/11 09:14:11;;;;;;;20.83;5.90;;;;;;;16.63;59.27;102805.75;5031631;28;20034;-70
2022/10/11 09:17:05;;;;;;;23.60;5.85;;;;;;;16.86;59.40;102802.50;5028018;28;20037;-70
2022/10/11 09:19:46;;;;;;;23.55;6.28;;;;;;;17.11;58.98;102810.66;5030161;28;20130;-69
2022/10/11 09:22:23;;;;;;;20.75;5.72;;;;;;;17.25;59.03;102799.47;5030048;28;20768;-70
2022/10/11 09:25:10;;;;;;;35.25;5.15;;;;;;;17.33;58.70;102807.34;5030277;28;20040;-69
2022/10/11 09:27:43;;;;;;;27.20;5.45;;;;;;;17.50;59.04;102813.09;5030122;28;20053;-70
2022/10/11 09:30:15;;;;;;;26.50;5.20;;;;;;;17.71;58.92;102807.22;5045818;28;20049;-71
2022/10/11 09:33:08;;;;;;;19.83;5.63;;;;;;;17.93;58.33;102811.19;5027671;28;20044;-70
2022/10/11 09:35:55;;;;;;;28.83;6.20;;;;;;;18.06;58.46;102805.59;5033705;28;20497;-71
2022/10/11 09:38:40;;;;;;;24.98;5.70;;;;;;;18.08;58.30;102808.09;5031781;28;20048;-71
2022/10/11 09:41:43;;;;;;;19.08;4.93;;;;;;;18.44;58.62;102805.34;5032345;28;20037;-71
2022/10/11 09:44:20;;;;;;;26.42;4.88;;;;;;;18.03;57.25;102816.09;5031844;28;20056;-71
2022/10/11 09:46:48;;;;;;;28.00;3.45;;;;;;;18.01;56.79;102807.31;5032303;28;20041;-70
2022/10/11 09:49:17;;;;;;;25.85;3.03;;;;;;;18.31;56.33;102809.06;5031841;28;20112;-70
2022/10/11 09:51:48;;;;;;;15.73;3.92;;;;;;;18.64;53.26;102808.66;5031779;28;20048;-72
2022/10/11 09:54:14;;;;;;;19.95;4.40;;;;;;;18.73;52.85;102812.69;5031995;28;20124;-72
2022/10/11 09:56:43;;;;;;;18.42;3.20;;;;;;;18.36;52.42;102813.81;5031756;28;20129;-70
2022/10/11 09:59:26;;;;;;;14.63;3.35;;;;;;;18.27;53.33;102817.91;5031742;28;20045;-70
2022/10/11 10:02:13;;;;;;;14.77;2.78;;;;;;;17.73;51.36;102818.72;5031663;28;20052;-70
2022/10/11 10:05:01;;;;;;;12.43;2.33;;;;;;;18.17;50.64;102821.16;5030377;28;20042;-70
2022/10/11 10:07:29;;;;;;;24.45;4.20;;;;;;;18.53;49.46;102816.78;5032136;28;20497;-71
2022/10/11 10:09:54;;;;;;;17.38;2.88;;;;;;;18.32;50.15;102818.03;5031780;28;20128;-71
2022/10/11 10:12:27;;;;;;;12.13;2.60;;;;;;;18.56;50.31;102817.13;5031406;28;20141;-68
2022/10/11 10:15:18;;;;;;;12.10;3.58;;;;;;;18.73;49.61;102815.44;5030892;28;20045;-69
2022/10/11 10:17:49;;;;;;;19.95;3.45;;;;;;;18.66;47.45;102814.69;5029506;28;20075;-70
2022/10/11 10:20:23;;;;;;;18.55;3.20;;;;;;;19.08;48.46;102810.94;5031666;28;20116;-70
2022/10/11 10:22:50;;;;;;;9.50;2.20;;;;;;;18.54;50.70;102808.38;5032266;28;20052;-69
2022/10/11 10:25:28;;;;;;;12.20;1.60;;;;;;;19.11;49.01;102809.63;5033969;28;20034;-71
2022/10/11 10:28:01;;;;;;;10.63;1.90;;;;;;;18.97;47.97;102817.19;5030903;28;20120;-70
2022/10/11 10:30:28;;;;;;;13.98;2.38;;;;;;;18.99;48.20;102811.47;5030740;28;20081;-70
2022/10/11 10:33:09;;;;;;;16.88;2.30;;;;;;;19.26;47.41;102815.47;5031763;28;20461;-70
2022/10/11 10:35:41;;;;;;;18.92;2.70;;;;;;;19.38;47.83;102810.88;5029074;28;20029;-71
2022/10/11 10:38:35;;;;;;;16.48;2.85;;;;;;;19.35;47.54;102814.09;5031453;28;20079;-70
2022/10/11 10:41:03;;;;;;;10.80;2.08;;;;;;;19.83;47.12;102809.22;5029772;28;20836;-70
2022/10/11 10:43:34;;;;;;;10.57;2.03;;;;;;;19.27;47.33;102807.06;5030556;28;20505;-71
2022/10/11 10:46:21;;;;;;;;;;;;;;;19.27;46.50;102804.34;5031100;28;20120;-70
2022/10/11 10:49:05;;;;;;;15.38;2.05;;;;;;;19.52;45.75;102815.03;5030225;28;19920;-71
2022/10/11 10:52:04;;;;;;;9.35;2.42;;;;;;;20.14;45.77;102810.72;5028205;28;20543;-68
2022/10/11 10:55:17;;;;;;;11.68;2.15;;;;;;;20.02;44.69;102807.19;5030445;28;20083;-69
2022/10/11 10:58:10;;;;;;;11.95;2.88;;;;;;;20.48;45.18;102812.53;4949746;29;20051;-70
2022/10/11 11:00:42;;;;;;;15.57;3.58;;;;;;;19.84;46.07;102805.44;4948660;28;20710;-70
2022/10/11 11:03:25;;;;;;;9.75;2.28;;;;;;;19.11;45.53;102804.16;4949713;29;20032;-70
2022/10/11 11:06:00;;;;;;;10.52;1.88;;;;;;;19.60;44.75;102808.41;4949959;28;20043;-70
2022/10/11 11:08:26;;;;;;;17.75;2.75;;;;;;;19.54;45.57;102807.44;4949874;29;20190;-70
2022/10/11 11:11:11;;;;;;;12.23;2.60;;;;;;;19.88;44.46;102809.34;4950248;28;20122;-71
2022/10/11 11:13:55;;;;;;;6.95;1.95;;;;;;;20.11;44.66;102809.31;4949751;29;20111;-71
2022/10/11 11:16:30;;;;;;;10.77;2.38;;;;;;;20.13;44.25;102798.13;4949864;28;20091;-69
2022/10/11 11:19:22;;;;;;;19.63;3.10;;;;;;;19.55;46.81;102794.66;4949560;29;20126;-70
2022/10/11 11:22:25;;;;;;;18.70;2.15;;;;;;;19.70;46.69;102801.28;4949669;29;20039;-71
2022/10/11 11:24:54;;;;;;;10.00;3.10;;;;;;;20.38;46.12;102797.88;4950030;29;20035;-67
2022/10/11 11:27:44;;;;;;;11.98;2.55;;;;;;;20.48;44.54;102798.09;4949186;29;20043;-68
2022/10/11 11:30:39;;;;;;;16.30;2.55;;;;;;;20.50;43.41;102794.00;4944443;29;20054;-71
2022/10/11 11:33:20;;;;;;;20.88;3.08;;;;;;;20.61;43.62;102804.09;4946613;29;20119;-68
2022/10/11 11:35:55;;;;;;;10.80;2.03;;;;;;;20.85;42.85;102793.88;5004809;28;20080;-70